Time;durP1;ratioP1;P1;durP2;ratioP2;P2;SDS_P1;SDS_P2;PMS_P1;PMS_P2;Temp;Humidity;BMP_temperature;BMP_pressure;BME280_temperature;BME280_humidity;BME280_pressure;Samples;Min_cycle;Max_cycle;Signal;HPM_P1;HPM_P2
2022/11/23 00:01:38;;;;;;;;;6.00;4.80;;;;;11.78;57.72;97467.91;4875638;29;8896;-75
2022/11/23 00:04:08;;;;;;;;;7.20;5.60;;;;;11.82;57.71;97479.94;4874301;29;9103;-78
2022/11/23 00:06:38;;;;;;;;;6.20;5.00;;;;;11.97;57.56;97468.06;4868303;29;9775;-75
2022/11/23 00:09:07;;;;;;;;;7.00;6.00;;;;;11.88;57.92;97469.25;4838785;29;8881;-76
2022/11/23 00:11:36;;;;;;;;;7.20;7.00;;;;;11.92;58.43;97459.56;4839775;29;8917;-77
2022/11/23 00:14:05;;;;;;;;;7.40;6.60;;;;;11.86;58.10;97465.84;4840840;29;8884;-76
2022/11/23 00:16:33;;;;;;;;;6.00;6.00;;;;;11.80;57.74;97455.66;4850910;29;8875;-76
2022/11/23 00:19:02;;;;;;;;;9.00;7.80;;;;;11.84;57.59;97457.22;4857584;29;8887;-76
2022/11/23 00:21:33;;;;;;;;;9.40;9.00;;;;;11.90;57.96;97463.06;4856125;29;8890;-76
2022/11/23 00:24:03;;;;;;;;;9.00;7.60;;;;;11.96;57.63;97464.59;4856663;29;8886;-76
2022/11/23 00:26:31;;;;;;;;;8.00;6.40;;;;;11.92;58.34;97470.00;4858225;29;8902;-75
2022/11/23 00:29:00;;;;;;;;;10.80;9.20;;;;;12.01;58.03;97474.88;4860093;29;8862;-75
2022/11/23 00:31:28;;;;;;;;;10.00;10.00;;;;;12.01;57.69;97474.88;4859914;29;8890;-76
2022/11/23 00:33:58;;;;;;;;;10.00;8.60;;;;;11.90;58.23;97468.28;4901149;29;8872;-76
2022/11/23 00:36:27;;;;;;;;;8.80;7.40;;;;;11.96;57.80;97461.97;4892180;29;8859;-76
2022/11/23 00:38:57;;;;;;;;;10.80;10.00;;;;;11.97;58.08;97471.53;4876176;29;8937;-75
2022/11/23 00:41:28;;;;;;;;;12.40;8.40;;;;;11.77;58.76;97471.44;4890194;29;9658;-76
2022/11/23 00:43:56;;;;;;;;;8.60;8.40;;;;;11.82;58.29;97474.72;4859766;29;8922;-77
2022/11/23 00:46:27;;;;;;;;;10.40;8.20;;;;;11.75;59.14;97479.31;4890977;29;8905;-75
2022/11/23 00:48:57;;;;;;;;;12.60;9.60;;;;;11.81;58.62;97481.69;4875359;29;8863;-76
2022/11/23 00:51:28;;;;;;;;;8.40;8.40;;;;;11.80;58.84;97487.81;4875180;29;8875;-75
2022/11/23 00:53:58;;;;;;;;;13.00;10.40;;;;;11.85;58.77;97495.47;4890214;29;8910;-77
2022/11/23 00:56:28;;;;;;;;;13.60;11.00;;;;;11.97;58.06;97495.03;4875075;29;8926;-78
2022/11/23 00:58:59;;;;;;;;;10.00;10.00;;;;;11.98;58.11;97501.09;4858006;29;8913;-76
2022/11/23 01:01:32;;;;;;;;;15.40;13.60;;;;;11.95;57.97;97472.50;4872035;29;8913;-77
2022/11/23 01:04:02;;;;;;;;;12.40;11.20;;;;;11.93;58.60;97490.84;4870905;29;8869;-76
2022/11/23 01:06:33;;;;;;;;;8.20;8.20;;;;;11.93;58.30;97489.97;4851876;29;9648;-75
2022/11/23 01:09:05;;;;;;;;;10.80;10.40;;;;;11.94;58.55;97497.75;4845997;29;8883;-75
2022/11/23 01:11:35;;;;;;;;;10.60;10.60;;;;;11.90;58.49;97489.19;4854519;29;8900;-75
2022/11/23 01:14:04;;;;;;;;;11.20;11.20;;;;;11.90;58.93;97491.81;4855025;29;8913;-76
2022/11/23 01:16:35;;;;;;;;;11.40;10.20;;;;;11.99;58.80;97484.53;4856084;29;8891;-76
2022/11/23 01:19:07;;;;;;;;;13.40;11.00;;;;;12.04;58.15;97493.00;4841183;29;8998;-76
2022/11/23 01:21:36;;;;;;;;;12.60;9.80;;;;;11.93;58.33;97498.69;4876663;29;8928;-76
2022/11/23 01:24:09;;;;;;;;;9.40;9.00;;;;;11.86;58.76;97512.84;4891024;29;8866;-75
2022/11/23 01:26:40;;;;;;;;;12.80;9.00;;;;;11.86;59.17;97491.97;4885062;29;8992;-77
2022/11/23 01:29:10;;;;;;;;;10.00;9.60;;;;;11.93;58.46;97503.03;4873154;29;9024;-75
2022/11/23 01:31:39;;;;;;;;;10.00;9.60;;;;;11.83;59.01;97494.69;4859561;29;8887;-76
2022/11/23 01:34:16;;;;;;;;;11.40;11.20;;;;;11.82;59.52;97503.44;4890639;29;8906;-76
2022/11/23 01:36:45;;;;;;;;;16.20;14.00;;;;;11.84;59.00;97512.06;4859791;29;9003;-75
2022/11/23 01:39:14;;;;;;;;;10.40;10.20;;;;;11.90;58.99;97499.63;4890477;29;8886;-76
2022/11/23 01:41:45;;;;;;;;;12.20;11.80;;;;;11.79;59.25;97506.16;4890214;29;8855;-76
2022/11/23 01:44:29;;;;;;;;;10.20;9.20;;;;;11.95;59.47;97506.47;4859198;29;8852;-75
2022/11/23 01:46:59;;;;;;;;;10.00;10.00;;;;;11.94;59.00;97495.16;4889065;29;8863;-76
2022/11/23 01:49:33;;;;;;;;;12.20;12.20;;;;;11.92;58.80;97489.13;4890158;29;8942;-76
2022/11/23 01:52:06;;;;;;;;;14.20;11.80;;;;;11.77;58.82;97506.22;4890415;29;8879;-75
2022/11/23 01:54:39;;;;;;;;;11.80;10.20;;;;;11.79;59.02;97495.72;4890155;29;8871;-77
2022/11/23 01:57:15;;;;;;;;;14.80;14.00;;;;;11.85;59.46;97487.63;4890177;29;8990;-77
2022/11/23 01:59:46;;;;;;;;;12.40;12.20;;;;;11.80;59.15;97489.59;4875544;29;8879;-79
2022/11/23 02:02:15;;;;;;;;;14.20;13.60;;;;;11.94;59.64;97483.84;4848031;29;8871;-75
2022/11/23 02:04:50;;;;;;;;;14.40;14.00;;;;;11.92;58.75;97478.69;4854973;29;8893;-76
2022/11/23 02:07:19;;;;;;;;;12.40;9.40;;;;;11.91;59.42;97487.44;4858135;29;9033;-77
2022/11/23 02:09:49;;;;;;;;;12.60;12.60;;;;;11.87;59.53;97491.91;4858538;29;9093;-75
2022/11/23 02:12:19;;;;;;;;;15.80;13.60;;;;;11.90;58.94;97501.41;4860005;29;8937;-76
2022/11/23 02:14:48;;;;;;;;;15.80;13.00;;;;;12.00;59.53;97507.13;4860256;29;8867;-74
2022/11/23 02:17:20;;;;;;;;;10.80;9.40;;;;;11.89;59.55;97505.78;4875730;29;9071;-77
2022/11/23 02:20:03;;;;;;;;;15.40;13.00;;;;;11.97;59.40;97512.47;4878701;29;8921;-76
2022/11/23 02:22:39;;;;;;;;;15.40;11.60;;;;;12.05;59.18;97510.41;4860494;29;8898;-76
2022/11/23 02:25:19;;;;;;;;;16.40;14.20;;;;;11.94;59.26;97508.19;4858354;29;8946;-77
2022/11/23 02:27:50;;;;;;;;;14.20;13.00;;;;;11.99;58.82;97513.28;4859014;29;8883;-77
2022/11/23 02:30:19;;;;;;;;;13.80;12.20;;;;;12.02;59.19;97516.63;4857682;29;8879;-76
2022/11/23 02:32:48;;;;;;;;;12.20;9.80;;;;;11.99;59.24;97526.31;4858832;29;9731;-76
2022/11/23 02:35:18;;;;;;;;;11.80;10.40;;;;;12.01;58.45;97538.41;4857989;29;8898;-76
2022/11/23 02:37:46;;;;;;;;;13.60;13.00;;;;;12.03;59.02;97520.91;4857340;29;8903;-76
2022/11/23 02:40:25;;;;;;;;;14.40;13.40;;;;;12.12;58.73;97529.28;4857155;29;8974;-75
2022/11/23 02:42:55;;;;;;;;;14.40;13.40;;;;;12.09;58.19;97525.88;4865448;29;8873;-76
2022/11/23 02:45:50;;;;;;;;;20.40;15.40;;;;;12.03;58.75;97525.28;4853678;29;9781;-77
2022/11/23 02:48:18;;;;;;;;;16.20;13.20;;;;;12.01;58.98;97508.81;4838501;29;8880;-77
2022/11/23 02:50:47;;;;;;;;;15.60;14.60;;;;;11.94;58.82;97526.50;4839978;29;8897;-76
2022/11/23 02:53:15;;;;;;;;;17.00;14.60;;;;;12.04;58.43;97540.91;4838080;29;8881;-75
2022/11/23 02:55:44;;;;;;;;;13.20;10.20;;;;;12.01;58.85;97548.84;4853241;29;8897;-75
2022/11/23 02:58:14;;;;;;;;;12.00;11.80;;;;;12.05;58.32;97552.19;4853259;29;8889;-75
2022/11/23 03:00:43;;;;;;;;;13.00;13.00;;;;;12.05;58.36;97547.81;4841384;29;9025;-76
2022/11/23 03:03:12;;;;;;;;;13.60;13.00;;;;;12.05;59.09;97547.81;4858121;29;8890;-77
2022/11/23 03:05:40;;;;;;;;;12.60;11.00;;;;;11.95;59.34;97545.66;4860340;29;8871;-75
2022/11/23 03:08:09;;;;;;;;;15.40;14.00;;;;;11.95;59.11;97541.25;4859428;29;8855;-75
2022/11/23 03:10:39;;;;;;;;;12.40;11.20;;;;;11.94;58.72;97538.69;4868129;29;8898;-75
2022/11/23 03:13:08;;;;;;;;;14.80;13.40;;;;;11.89;58.67;97536.25;4879890;29;9108;-75
2022/11/23 03:15:41;;;;;;;;;18.00;12.80;;;;;11.85;58.94;97532.91;4868116;29;8887;-76
2022/11/23 03:18:10;;;;;;;;;13.20;12.60;;;;;11.77;58.86;97506.22;4837875;29;8890;-75
2022/11/23 03:20:40;;;;;;;;;10.20;10.20;;;;;11.77;59.72;97531.47;4853094;29;8932;-77
2022/11/23 03:23:08;;;;;;;;;13.00;13.00;;;;;11.79;59.44;97532.28;4853364;29;8908;-76
2022/11/23 03:25:37;;;;;;;;;14.60;13.20;;;;;11.77;60.12;97534.09;4854095;29;8890;-74
2022/11/23 03:28:06;;;;;;;;;18.20;15.20;;;;;11.68;59.49;97535.28;4856428;29;8871;-76
2022/11/23 03:30:35;;;;;;;;;8.00;8.00;;;;;11.57;59.70;97538.31;4856191;29;8879;-76
2022/11/23 03:33:07;;;;;;;;;13.40;13.40;;;;;11.62;60.08;97531.13;4855976;29;8894;-76
2022/11/23 03:35:37;;;;;;;;;13.20;12.40;;;;;11.64;59.96;97533.69;4855476;29;8895;-76
2022/11/23 03:38:24;;;;;;;;;18.20;14.40;;;;;11.65;59.87;97532.81;4840574;29;8891;-75
2022/11/23 03:40:54;;;;;;;;;12.40;12.40;;;;;11.63;60.59;97530.25;4855035;29;9587;-76
2022/11/23 03:43:25;;;;;;;;;14.20;14.00;;;;;11.63;60.48;97527.63;4839305;29;9697;-76
2022/11/23 03:45:54;;;;;;;;;13.40;13.00;;;;;11.66;60.20;97537.97;4856338;29;8875;-79
2022/11/23 03:48:24;;;;;;;;;12.60;12.60;;;;;11.69;59.67;97543.06;4855980;29;8942;-75
2022/11/23 03:50:53;;;;;;;;;15.20;13.80;;;;;11.67;59.74;97542.25;4853146;29;8889;-76
2022/11/23 03:53:22;;;;;;;;;16.20;13.60;;;;;11.61;60.20;97534.66;4853981;29;8898;-77
2022/11/23 03:55:54;;;;;;;;;13.20;12.80;;;;;11.70;60.01;97556.97;4870116;29;8899;-74
2022/11/23 03:58:24;;;;;;;;;13.60;12.40;;;;;11.77;60.20;97557.59;4844982;29;9035;-76
2022/11/23 04:00:54;;;;;;;;;15.20;14.80;;;;;11.82;59.11;97561.72;4853480;29;9480;-75
2022/11/23 04:03:24;;;;;;;;;12.60;11.80;;;;;11.88;60.44;97563.25;4848142;29;8886;-77
2022/11/23 04:06:11;;;;;;;;;15.00;14.40;;;;;11.90;59.36;97557.09;4854680;29;8885;-76
2022/11/23 04:09:05;;;;;;;;;13.60;13.60;;;;;11.75;60.29;97559.41;4868256;29;9698;-77
2022/11/23 04:11:53;;;;;;;;;15.20;15.20;;;;;11.90;59.41;97567.53;4831000;29;8886;-75
2022/11/23 04:14:22;;;;;;;;;14.60;11.40;;;;;11.94;59.36;97562.22;4837794;29;8903;-75
2022/11/23 04:16:52;;;;;;;;;17.60;13.60;;;;;11.91;59.48;97557.97;4841349;29;8908;-76
2022/11/23 04:19:22;;;;;;;;;15.20;15.20;;;;;11.98;59.69;97553.34;4839500;29;9035;-77
2022/11/23 04:21:51;;;;;;;;;17.60;13.80;;;;;12.03;59.57;97556.63;4855126;29;8870;-75
2022/11/23 04:24:19;;;;;;;;;21.40;20.00;;;;;12.05;58.76;97563.50;4852711;29;8861;-77
2022/11/23 04:26:49;;;;;;;;;16.60;13.60;;;;;12.05;58.64;97552.19;4850305;29;8891;-77
2022/11/23 04:29:18;;;;;;;;;13.80;11.40;;;;;12.09;59.16;97556.41;4840908;29;8958;-76
2022/11/23 04:31:52;;;;;;;;;13.40;13.40;;;;;12.16;58.79;97544.81;4856601;29;8871;-76
2022/11/23 04:34:23;;;;;;;;;16.80;14.20;;;;;12.11;59.26;97549.34;4856138;29;8993;-77
2022/11/23 04:36:54;;;;;;;;;14.20;12.80;;;;;12.04;59.12;97548.75;4856866;29;8950;-76
2022/11/23 04:39:29;;;;;;;;;13.40;13.40;;;;;12.07;59.29;97546.00;4841385;29;8867;-75
2022/11/23 04:42:16;;;;;;;;;24.60;21.00;;;;;12.05;59.33;97550.44;4856437;29;8883;-77
2022/11/23 04:44:51;;;;;;;;;15.60;12.60;;;;;12.12;58.78;97561.50;4856547;29;8931;-75
2022/11/23 04:47:20;;;;;;;;;8.60;8.60;;;;;12.13;59.53;97551.91;4854795;29;8893;-77
2022/11/23 04:49:50;;;;;;;;;14.00;14.00;;;;;12.07;59.80;97556.44;4853293;29;8980;-77
2022/11/23 04:52:20;;;;;;;;;13.00;9.40;;;;;12.03;59.84;97565.31;4838786;29;8887;-77
2022/11/23 04:54:51;;;;;;;;;12.60;12.60;;;;;12.08;59.26;97567.78;4856733;29;8976;-76
2022/11/23 04:57:19;;;;;;;;;17.80;14.00;;;;;12.09;58.98;97566.84;4856567;29;9778;-75
2022/11/23 04:59:52;;;;;;;;;14.80;14.00;;;;;12.14;59.44;97571.91;4864393;29;8885;-76
2022/11/23 05:02:22;;;;;;;;;13.40;13.40;;;;;12.17;58.69;97566.53;4853833;29;8886;-76
2022/11/23 05:05:15;;;;;;;;;12.00;12.00;;;;;12.13;59.54;97575.41;4839293;29;8893;-79
2022/11/23 05:07:44;;;;;;;;;11.80;11.80;;;;;12.11;59.02;97582.47;4848748;29;8877;-75
2022/11/23 05:10:13;;;;;;;;;13.20;11.80;;;;;12.16;59.55;97580.53;4835810;29;8901;-75
2022/11/23 05:12:42;;;;;;;;;15.00;12.00;;;;;12.14;59.63;97582.38;4836483;29;9096;-76
2022/11/23 05:15:13;;;;;;;;;18.60;12.40;;;;;12.17;59.38;97583.06;4846140;29;8930;-77
2022/11/23 05:17:42;;;;;;;;;15.40;15.00;;;;;12.26;59.69;97584.47;4850042;29;8905;-76
2022/11/23 05:20:19;;;;;;;;;14.20;13.00;;;;;12.31;58.79;97579.09;4836724;29;8990;-76
2022/11/23 05:22:49;;;;;;;;;18.00;13.80;;;;;12.25;59.50;97583.63;4848418;29;8875;-76
2022/11/23 05:25:21;;;;;;;;;16.60;15.60;;;;;12.35;58.49;97589.34;4909245;29;8877;-76
2022/11/23 05:27:57;;;;;;;;;9.20;9.20;;;;;12.33;58.96;97585.94;4893701;29;8903;-77
2022/11/23 05:30:38;;;;;;;;;13.60;13.60;;;;;12.41;58.95;97581.25;4893673;29;8965;-77
2022/11/23 05:33:09;;;;;;;;;12.80;12.80;;;;;12.40;58.45;97582.19;4893811;29;8841;-77
2022/11/23 05:35:41;;;;;;;;;15.80;14.40;;;;;12.40;59.20;97579.56;4862945;29;8881;-76
2022/11/23 05:38:10;;;;;;;;;11.20;10.00;;;;;12.27;59.33;97580.97;4884314;29;8875;-76
2022/11/23 05:40:39;;;;;;;;;15.20;14.40;;;;;12.11;59.92;97580.69;4889481;29;8983;-76
2022/11/23 05:43:09;;;;;;;;;17.40;15.80;;;;;12.09;59.97;97579.91;4889873;29;8898;-75
2022/11/23 05:45:37;;;;;;;;;14.80;14.40;;;;;12.19;59.81;97588.25;4890050;29;8990;-75
2022/11/23 05:48:06;;;;;;;;;13.20;12.20;;;;;12.12;60.24;97597.22;4891087;29;8973;-74
2022/11/23 05:50:51;;;;;;;;;15.80;15.80;;;;;12.14;60.05;97593.66;4907579;29;8984;-77
2022/11/23 05:53:32;;;;;;;;;17.00;16.20;;;;;12.18;60.05;97597.84;4899387;29;8849;-77
2022/11/23 05:56:14;;;;;;;;;17.60;14.80;;;;;12.19;59.29;97603.91;4901237;29;8886;-77
2022/11/23 05:58:57;;;;;;;;;16.20;15.20;;;;;12.15;59.55;97607.56;4845619;29;8997;-76
2022/11/23 06:01:26;;;;;;;;;14.40;13.20;;;;;12.20;59.25;97611.69;4853857;29;8895;-76
2022/11/23 06:03:59;;;;;;;;;10.00;9.00;;;;;12.25;59.55;97615.00;4852577;29;8875;-77
2022/11/23 06:06:33;;;;;;;;;15.60;14.00;;;;;12.15;59.97;97628.47;4853810;29;8879;-76
2022/11/23 06:09:02;;;;;;;;;17.40;16.00;;;;;12.23;59.32;97623.78;4857455;29;8887;-77
2022/11/23 06:11:34;;;;;;;;;19.00;17.80;;;;;12.19;58.96;97620.47;4858396;29;8883;-77
2022/11/23 06:14:09;;;;;;;;;20.80;17.00;;;;;12.21;58.92;97625.59;4865596;29;8859;-77
2022/11/23 06:16:44;;;;;;;;;18.40;18.40;;;;;12.14;58.95;97632.00;4865838;29;8992;-76
2022/11/23 06:19:35;;;;;;;;;20.80;19.80;;;;;12.03;59.76;97624.56;4859237;29;8894;-77
2022/11/23 06:22:07;;;;;;;;;20.60;17.60;;;;;12.08;59.97;97636.53;4849350;29;8938;-77
2022/11/23 06:24:44;;;;;;;;;20.80;17.60;;;;;12.22;59.81;97628.16;4852852;29;8865;-77
2022/11/23 06:27:30;;;;;;;;;22.40;19.20;;;;;12.11;59.89;97640.78;4850065;29;8998;-77
2022/11/23 06:30:02;;;;;;;;;18.40;15.60;;;;;12.19;59.56;97645.72;4855138;29;8867;-77
2022/11/23 06:32:32;;;;;;;;;14.40;14.40;;;;;12.26;59.04;97644.59;4870800;29;8987;-76
2022/11/23 06:35:02;;;;;;;;;22.40;17.80;;;;;12.26;59.35;97641.97;4871796;29;8874;-77
2022/11/23 06:37:36;;;;;;;;;22.00;18.40;;;;;12.31;59.24;97644.44;4856211;29;9062;-79
2022/11/23 06:40:05;;;;;;;;;23.00;21.20;;;;;12.37;58.93;97639.81;4871280;29;8879;-78
2022/11/23 06:42:34;;;;;;;;;25.20;18.60;;;;;12.40;58.34;97644.06;4856332;29;8909;-78
2022/11/23 06:45:21;;;;;;;;;19.40;18.20;;;;;12.35;58.24;97640.78;4870856;29;8898;-76
2022/11/23 06:47:54;;;;;;;;;16.60;16.00;;;;;12.42;57.97;97643.09;4852133;29;8862;-76
2022/11/23 06:50:23;;;;;;;;;17.60;16.40;;;;;12.46;58.37;97641.22;4844128;29;8922;-75
2022/11/23 06:52:57;;;;;;;;;22.80;21.60;;;;;12.61;57.86;97655.47;4838965;29;8887;-76
2022/11/23 06:55:42;;;;;;;;;21.40;20.60;;;;;12.54;58.39;97646.16;4872122;29;8882;-77
2022/11/23 06:58:13;;;;;;;;;18.00;18.00;;;;;12.69;57.17;97635.09;4845913;29;8887;-77
2022/11/23 07:00:43;;;;;;;;;22.80;19.40;;;;;12.68;57.64;97643.81;4857695;29;9112;-78
2022/11/23 07:03:20;;;;;;;;;16.40;15.40;;;;;12.76;56.96;97633.06;4841716;29;9029;-78
2022/11/23 07:05:54;;;;;;;;;21.00;19.80;;;;;12.71;57.31;97635.03;4857152;29;8902;-78
2022/11/23 07:08:27;;;;;;;;;16.20;15.20;;;;;12.71;57.07;97648.09;4856928;29;8879;-77
2022/11/23 07:11:01;;;;;;;;;24.20;22.60;;;;;12.72;57.16;97660.25;4842058;29;8982;-77
2022/11/23 07:13:29;;;;;;;;;18.60;17.80;;;;;12.73;57.19;97662.81;4856514;29;8901;-76
2022/11/23 07:15:59;;;;;;;;;18.00;18.00;;;;;12.81;57.44;97644.19;4856681;29;9026;-78
2022/11/23 07:18:29;;;;;;;;;23.80;21.00;;;;;12.90;57.28;97651.66;4857079;29;8914;-79
2022/11/23 07:21:00;;;;;;;;;23.40;22.40;;;;;12.97;57.36;97654.91;4857922;29;8867;-76
2022/11/23 07:23:30;;;;;;;;;18.20;17.20;;;;;12.92;57.29;97651.63;4857316;29;9026;-79
2022/11/23 07:25:59;;;;;;;;;22.00;20.60;;;;;12.97;57.47;97654.91;4856938;29;8913;-78
2022/11/23 07:28:28;;;;;;;;;17.80;16.80;;;;;12.98;57.80;97648.75;4858292;29;8907;-79
2022/11/23 07:30:57;;;;;;;;;15.20;15.20;;;;;13.06;57.76;97659.72;4857224;29;8883;-78
2022/11/23 07:33:26;;;;;;;;;22.00;18.40;;;;;12.91;57.74;97653.38;4857688;29;8884;-80
2022/11/23 07:35:55;;;;;;;;;23.20;18.20;;;;;13.05;57.78;97658.88;4841740;29;8910;-79
2022/11/23 07:38:23;;;;;;;;;17.20;15.60;;;;;13.00;57.82;97663.44;4842464;29;8895;-80
2022/11/23 07:40:54;;;;;;;;;19.00;16.80;;;;;13.02;58.37;97659.03;4842530;29;8917;-80
2022/11/23 07:43:43;;;;;;;;;18.80;16.80;;;;;13.06;58.16;97659.72;4845374;29;8917;-78
2022/11/23 07:46:11;;;;;;;;;19.20;17.80;;;;;13.12;58.35;97661.25;4917383;29;8865;-76
2022/11/23 07:48:40;;;;;;;;;17.60;16.00;;;;;13.15;58.26;97661.97;4890827;29;8947;-78
2022/11/23 07:51:09;;;;;;;;;22.40;16.80;;;;;13.22;58.56;97670.44;4907730;29;8872;-79
2022/11/23 07:53:37;;;;;;;;;19.60;17.00;;;;;13.30;58.53;97670.13;4882178;29;8873;-78
2022/11/23 07:56:08;;;;;;;;;19.40;17.00;;;;;13.41;58.39;97675.78;4892330;29;8859;-79
2022/11/23 07:58:37;;;;;;;;;17.20;15.00;;;;;13.40;58.39;97668.84;4871320;29;9054;-78
2022/11/23 08:01:06;;;;;;;;;15.00;14.60;;;;;13.43;58.76;97672.19;4895583;29;8857;-79
2022/11/23 08:03:34;;;;;;;;;19.60;16.80;;;;;13.34;58.98;97671.72;4894463;29;8938;-81
2022/11/23 08:06:03;;;;;;;;;22.20;17.00;;;;;13.34;58.72;97669.94;4910788;29;8861;-80
2022/11/23 08:08:34;;;;;;;;;11.00;9.60;;;;;13.32;59.25;97679.63;4895355;29;8888;-79
2022/11/23 08:11:04;;;;;;;;;14.40;14.00;;;;;13.46;58.93;97679.06;4894880;29;9757;-79
2022/11/23 08:13:34;;;;;;;;;18.60;17.20;;;;;13.46;59.10;97684.31;4895182;29;8881;-78
2022/11/23 08:16:04;;;;;;;;;12.00;12.00;;;;;13.60;58.68;97683.72;4910756;29;8942;-79
2022/11/23 08:18:32;;;;;;;;;13.80;12.60;;;;;13.71;58.61;97676.25;4857061;29;8875;-78
2022/11/23 08:21:01;;;;;;;;;12.20;12.00;;;;;13.72;58.69;97687.56;4839187;29;8930;-77
2022/11/23 08:23:30;;;;;;;;;14.00;14.00;;;;;13.77;58.31;97691.69;4857261;29;8906;-79
2022/11/23 08:25:59;;;;;;;;;18.20;17.00;;;;;13.89;58.66;97689.44;4856100;29;8874;-79
2022/11/23 08:28:28;;;;;;;;;15.40;11.80;;;;;13.90;58.73;97685.94;4856625;29;8901;-79
2022/11/23 08:30:58;;;;;;;;;12.80;12.80;;;;;14.03;58.73;97690.53;4856631;29;8902;-77
2022/11/23 08:33:27;;;;;;;;;14.60;14.40;;;;;14.06;58.83;97689.53;4892486;29;8917;-77
2022/11/23 08:35:55;;;;;;;;;17.80;15.20;;;;;14.12;58.97;97693.66;4878062;29;8898;-79
2022/11/23 08:38:25;;;;;;;;;13.40;13.40;;;;;13.99;59.37;97683.75;4893971;29;8863;-78
2022/11/23 08:40:58;;;;;;;;;17.00;17.00;;;;;14.11;59.21;97687.59;4874476;29;8962;-78
2022/11/23 08:43:27;;;;;;;;;14.80;14.20;;;;;13.97;59.83;97690.81;4891948;29;8974;-80
2022/11/23 08:45:58;;;;;;;;;16.80;15.20;;;;;14.06;59.57;97688.72;4868126;29;8866;-78
2022/11/23 08:48:34;;;;;;;;;12.60;11.40;;;;;14.09;59.67;97689.41;4893206;29;8855;-79
2022/11/23 08:51:03;;;;;;;;;16.00;13.20;;;;;14.12;59.94;97689.28;4876270;29;8852;-79
2022/11/23 08:53:31;;;;;;;;;11.60;11.40;;;;;14.15;59.63;97688.28;4876110;29;9014;-78
2022/11/23 08:56:01;;;;;;;;;12.40;11.40;;;;;14.16;59.83;97696.09;4875758;29;9018;-77
2022/11/23 08:58:30;;;;;;;;;14.00;11.60;;;;;14.17;59.88;97689.91;4859872;29;8848;-78
2022/11/23 09:01:00;;;;;;;;;14.80;13.00;;;;;14.35;59.50;97695.28;4875630;29;8905;-78
2022/11/23 09:03:29;;;;;;;;;14.60;14.60;;;;;14.56;58.70;97685.56;4873926;29;8902;-79
2022/11/23 09:06:00;;;;;;;;;11.00;11.00;;;;;14.66;58.46;97684.22;4852582;29;8881;-78
2022/11/23 09:08:29;;;;;;;;;12.60;11.80;;;;;14.87;58.08;97684.13;4833779;29;8878;-80
2022/11/23 09:10:59;;;;;;;;;11.40;10.80;;;;;15.10;57.22;97680.38;4839239;29;8928;-75
2022/11/23 09:13:28;;;;;;;;;13.00;11.80;;;;;15.23;56.79;97678.00;4851867;29;8886;-77
2022/11/23 09:15:58;;;;;;;;;11.80;11.80;;;;;15.34;56.33;97692.31;4851813;29;8890;-79
2022/11/23 09:18:30;;;;;;;;;14.80;13.20;;;;;15.43;56.09;97687.53;4836067;29;8878;-79
2022/11/23 09:21:01;;;;;;;;;13.80;12.80;;;;;15.54;55.82;97693.94;4837598;29;8878;-77
2022/11/23 09:23:31;;;;;;;;;13.80;12.80;;;;;15.72;55.23;97693.94;4851398;29;8882;-78
2022/11/23 09:26:00;;;;;;;;;13.20;13.20;;;;;15.78;54.83;97696.25;4845196;29;8870;-78
2022/11/23 09:28:29;;;;;;;;;20.20;19.40;;;;;15.87;54.87;97714.19;4852692;29;8902;-78
2022/11/23 09:30:57;;;;;;;;;33.80;32.20;;;;;14.65;59.83;97728.88;4839796;29;8912;-77
2022/11/23 09:33:27;;;;;;;;;19.40;18.80;;;;;13.99;63.23;97733.53;4859319;29;8936;-78
2022/11/23 09:35:57;;;;;;;;;23.80;22.00;;;;;13.84;65.59;97742.06;4869940;29;8900;-78
2022/11/23 09:38:27;;;;;;;;;23.40;20.20;;;;;14.49;63.65;97742.69;4867269;29;8898;-80
2022/11/23 09:41:35;;;;;;;;;27.40;26.80;;;;;14.82;62.69;97742.09;4841191;29;8863;-79
2022/11/23 09:44:13;;;;;;;;;31.00;30.00;;;;;14.67;62.59;97745.41;4856526;29;9691;-79
2022/11/23 09:46:54;;;;;;;;;28.40;25.20;;;;;14.88;61.54;97738.34;4849886;29;8917;-80
2022/11/23 09:49:32;;;;;;;;;21.00;17.20;;;;;15.20;60.78;97735.00;4854476;29;8863;-73
2022/11/23 09:52:01;;;;;;;;;20.20;19.60;;;;;15.60;59.46;97726.94;4856429;29;8906;-78
2022/11/23 09:54:36;;;;;;;;;21.40;16.80;;;;;15.54;59.73;97735.13;4870186;29;8898;-74
2022/11/23 09:57:05;;;;;;;;;17.20;17.20;;;;;15.73;58.75;97737.69;4855277;29;8879;-77
2022/11/23 09:59:41;;;;;;;;;22.00;19.40;;;;;16.08;58.30;97733.25;4854585;29;9008;-78
2022/11/23 10:02:19;;;;;;;;;23.60;23.00;;;;;16.05;57.89;97743.09;4870427;29;8871;-79
2022/11/23 10:04:51;;;;;;;;;18.40;16.60;;;;;15.88;57.40;97741.31;4856773;29;8998;-77
2022/11/23 10:07:36;;;;;;;;;22.20;20.00;;;;;15.85;57.01;97737.09;4855562;29;8906;-78
2022/11/23 10:10:15;;;;;;;;;25.60;25.60;;;;;15.63;58.28;97750.41;4869352;29;8887;-80
2022/11/23 10:12:52;;;;;;;;;32.00;30.80;;;;;15.62;58.34;97755.78;4854749;29;8897;-78
2022/11/23 10:15:26;;;;;;;;;39.40;35.00;;;;;15.44;59.25;97762.78;4853662;29;9666;-79
2022/11/23 10:18:23;;;;;;;;;50.75;42.75;;;;;13.50;65.66;97772.28;4854876;29;8891;-77
2022/11/23 10:20:59;;;;;;;;;53.25;43.00;;;;;13.56;64.92;97776.44;4853653;29;8913;-76
2022/11/23 10:23:45;;;;;;;;;52.00;43.00;;;;;13.54;65.10;97773.84;4855225;29;8998;-78
2022/11/23 10:26:18;;;;;;;;;49.75;39.00;;;;;13.47;65.46;97782.88;4857207;29;9073;-80
2022/11/23 10:28:47;;;;;;;;;43.00;37.75;;;;;13.71;64.41;97777.56;4853368;29;8903;-78
2022/11/23 10:31:19;;;;;;;;;51.00;42.50;;;;;13.51;64.97;97784.44;4872141;29;8897;-78
2022/11/23 10:33:59;;;;;;;;;56.75;45.50;;;;;12.68;68.00;97790.28;4864263;29;8898;-79
2022/11/23 10:36:30;;;;;;;;;58.00;49.00;;;;;12.54;69.40;97792.56;4858114;29;8882;-80
2022/11/23 10:39:01;;;;;;;;;55.50;46.00;;;;;12.96;67.72;97797.94;4857125;29;8958;-79
2022/11/23 10:41:30;;;;;;;;;53.75;43.50;;;;;12.53;68.48;97810.00;4878292;29;8919;-79
2022/11/23 10:44:06;;;;;;;;;55.75;47.00;;;;;11.83;71.52;97806.31;4878864;29;8871;-78
2022/11/23 10:46:39;;;;;;;;;50.25;43.75;;;;;11.95;70.91;97810.31;4879565;29;8913;-77
2022/11/23 10:49:20;;;;;;;;;54.25;44.25;;;;;11.83;71.50;97808.94;4894086;29;9685;-79
2022/11/23 10:51:53;;;;;;;;;55.25;47.00;;;;;11.82;71.87;97803.75;4894534;29;8866;-79
2022/11/23 10:54:33;;;;;;;;;57.50;46.00;;;;;11.84;71.77;97813.25;4880279;29;9671;-79
2022/11/23 10:57:21;;;;;;;;;56.25;45.75;;;;;12.39;69.67;97810.50;4870251;29;8887;-79
2022/11/23 10:59:58;;;;;;;;;49.75;42.25;;;;;12.68;68.20;97814.69;4878817;29;8860;-78
2022/11/23 11:02:28;;;;;;;;;34.75;30.25;;;;;12.24;69.46;97829.34;4893507;29;8878;-78
2022/11/23 11:05:13;;;;;;;;;47.50;40.25;;;;;12.70;68.79;97824.22;4892969;29;9654;-79
2022/11/23 11:07:43;;;;;;;;;51.75;42.25;;;;;13.26;66.62;97827.28;4893218;29;8855;-79
2022/11/23 11:10:35;;;;;;;;;52.50;43.75;;;;;13.07;66.03;97832.38;4893099;29;8868;-79
2022/11/23 11:13:20;;;;;;;;;46.00;37.50;;;;;12.21;69.56;97840.78;4892838;29;8970;-78
2022/11/23 11:15:53;;;;;;;;;53.00;43.25;;;;;12.60;68.39;97848.09;4894342;29;8968;-77
2022/11/23 11:18:24;;;;;;;;;44.50;34.25;;;;;12.82;67.88;97842.94;4885197;29;8874;-78
2022/11/23 11:20:58;;;;;;;;;45.00;37.75;;;;;12.27;69.08;97847.53;4880809;29;9005;-79
2022/11/23 11:23:30;;;;;;;;;44.75;37.25;;;;;12.99;66.63;97841.47;4856143;29;8893;-79
2022/11/23 11:26:09;;;;;;;;;46.25;40.00;;;;;12.30;69.55;97844.81;4867191;29;8887;-78
2022/11/23 11:28:42;;;;;;;;;47.75;39.25;;;;;12.64;68.03;97847.06;4862031;29;8895;-80
2022/11/23 11:31:26;;;;;;;;;60.50;48.50;;;;;13.08;66.21;97848.97;4857125;29;9718;-79
2022/11/23 11:34:03;;;;;;;;;48.50;41.50;;;;;13.41;64.89;97846.81;4856513;29;8914;-79
2022/11/23 11:36:38;;;;;;;;;48.50;40.25;;;;;13.76;64.06;97854.16;4873933;29;8975;-80
2022/11/23 11:39:22;;;;;;;;;40.00;35.25;;;;;14.21;62.92;97850.56;4874166;29;8907;-78
2022/11/23 11:41:54;;;;;;;;;40.40;36.80;;;;;14.34;62.00;97843.03;4858303;29;9099;-78
2022/11/23 11:44:26;;;;;;;;;48.75;41.50;;;;;14.52;61.46;97844.00;4873694;29;8880;-78
2022/11/23 11:47:03;;;;;;;;;46.50;39.75;;;;;14.57;61.39;97835.03;4827463;29;8895;-78
2022/11/23 11:49:40;;;;;;;;;45.50;38.25;;;;;14.73;60.94;97837.81;4873540;29;8888;-78
2022/11/23 11:52:17;;;;;;;;;46.50;37.00;;;;;14.86;60.21;97842.50;4873602;29;8904;-79